Terminal Aerodrome Forecast
Issued by NWS

Home | Current Version | Previous Version | Text Only | Print | Product List | Glossary On
Versions: 1 2 3 4 5 6 7 8 9 10 11 12 13 14 15 16 17 18 19 20 21 22 23 24 25 26 27 28 29 30 31 32 33 34 35 36 37
000
FTUS45 KCYS 222339
TAFAIA
TAF
KAIA 222339Z 2300/2324 13014KT P6SM OVC012
     FM230300 14008KT 5SM BR OVC007
     FM230700 14007KT 3SM BR OVC003
     FM231000 14010KT 1SM BR OVC001
     FM231500 15010KT 4SM BR OVC003
     FM231800 15015G25KT P6SM VCSH BKN015=

USA.gov is the U.S. government's official web portal to all federal, state and local government web resources and services.